Time;durP1;ratioP1;P1;durP2;ratioP2;P2;SDS_P1;SDS_P2;PMS_P1;PMS_P2;Temp;Humidity;BMP_temperature;BMP_pressure;BME280_temperature;BME280_humidity;BME280_pressure;Samples;Min_cycle;Max_cycle;Signal;HPM_P1;HPM_P2
2021/09/06 00:02:04;;;;;;;8.35;6.35;;;;;;;21.33;45.46;99990.75;5053029;28;20063;-74
2021/09/06 00:04:29;;;;;;;10.38;6.22;;;;;;;22.15;45.53;100118.50;5054348;28;20134;-75
2021/09/06 00:06:55;;;;;;;8.48;6.75;;;;;;;21.88;45.81;100063.63;5054530;28;20029;-74
2021/09/06 00:09:21;;;;;;;8.70;6.93;;;;;;;22.18;45.88;100115.34;5053196;28;20120;-74
2021/09/06 00:11:46;;;;;;;9.77;6.63;;;;;;;21.92;46.13;100072.84;5054198;28;20111;-74
2021/09/06 00:14:12;;;;;;;12.23;7.40;;;;;;;22.19;46.04;100114.28;5052601;28;20048;-75
2021/09/06 00:16:37;;;;;;;9.40;6.22;;;;;;;21.98;46.10;100087.22;5054220;28;20033;-75
2021/09/06 00:19:03;;;;;;;13.18;7.70;;;;;;;22.18;46.22;100112.66;5054063;28;20079;-74
2021/09/06 00:21:31;;;;;;;11.60;7.15;;;;;;;21.33;46.31;99980.00;5054057;28;20025;-75
2021/09/06 00:23:56;;;;;;;14.68;7.85;;;;;;;22.00;46.61;100104.72;5054177;28;20028;-74
2021/09/06 00:26:22;;;;;;;11.32;7.65;;;;;;;21.68;46.95;100053.28;5054073;28;20417;-74
2021/09/06 00:28:47;;;;;;;11.45;8.02;;;;;;;22.04;46.73;100105.91;5053986;28;20470;-74
2021/09/06 00:31:14;;;;;;;10.02;7.68;;;;;;;21.76;47.11;100069.03;5053858;28;20486;-74
2021/09/06 00:33:40;;;;;;;10.30;7.40;;;;;;;21.72;47.15;100061.69;5053714;28;20032;-74
2021/09/06 00:36:05;;;;;;;10.88;7.50;;;;;;;22.03;47.26;100117.72;5053831;28;20036;-74
2021/09/06 00:38:31;;;;;;;9.38;6.88;;;;;;;22.07;47.11;100113.50;5053781;28;20029;-73
2021/09/06 00:40:56;;;;;;;9.32;7.22;;;;;;;21.93;47.15;100085.22;5053447;28;20478;-75
2021/09/06 00:43:22;;;;;;;9.85;7.25;;;;;;;22.06;47.42;100114.56;5053679;28;20025;-75
2021/09/06 00:45:47;;;;;;;9.32;7.30;;;;;;;21.91;47.38;100081.97;5053753;28;20028;-74
2021/09/06 00:48:17;;;;;;;8.23;6.57;;;;;;;22.01;47.40;100098.31;5053701;28;20013;-75
2021/09/06 00:50:43;;;;;;;10.55;7.70;;;;;;;22.10;47.61;100110.34;5053522;28;20107;-75
2021/09/06 00:53:08;;;;;;;11.07;7.18;;;;;;;22.08;47.63;100108.94;5053559;28;20104;-74
2021/09/06 00:55:34;;;;;;;9.98;8.20;;;;;;;21.66;47.99;100046.53;5053457;28;20025;-75
2021/09/06 00:58:00;;;;;;;9.13;6.85;;;;;;;21.89;48.03;100101.03;5053215;28;20033;-74
2021/09/06 01:00:25;;;;;;;11.57;6.65;;;;;;;21.65;48.16;100058.31;5053366;28;20032;-74
2021/09/06 01:02:51;;;;;;;9.15;6.68;;;;;;;21.72;48.19;100069.75;5053338;28;20029;-74
2021/09/06 01:05:16;;;;;;;10.95;6.88;;;;;;;21.99;48.38;100111.16;5053402;28;20025;-74
2021/09/06 01:07:42;;;;;;;9.95;7.35;;;;;;;21.52;48.29;100043.25;5053358;28;20395;-75
2021/09/06 01:10:10;;;;;;;11.60;7.38;;;;;;;22.04;48.44;100122.06;5053152;28;20024;-74
2021/09/06 01:12:37;;;;;;;9.52;7.50;;;;;;;21.94;48.50;100099.50;5053039;28;20027;-74
2021/09/06 01:15:04;;;;;;;11.65;7.55;;;;;;;22.01;48.53;100114.44;5052790;28;20053;-74
2021/09/06 01:17:30;;;;;;;8.50;7.60;;;;;;;21.71;48.51;100071.63;5052802;28;20032;-74
2021/09/06 01:19:55;;;;;;;8.45;7.50;;;;;;;21.97;48.57;100105.22;5052691;28;20051;-75
2021/09/06 01:22:21;;;;;;;11.65;8.43;;;;;;;21.96;48.61;100102.75;5052899;28;20492;-74
2021/09/06 01:24:47;;;;;;;10.18;7.80;;;;;;;21.72;48.62;100057.13;5052872;28;20107;-75
2021/09/06 01:27:14;;;;;;;9.40;8.02;;;;;;;22.04;48.87;100116.69;5052830;28;20033;-75
2021/09/06 01:29:39;;;;;;;11.02;7.63;;;;;;;21.79;49.02;100090.06;5052867;28;20412;-75
2021/09/06 01:32:06;;;;;;;9.60;7.82;;;;;;;21.98;48.73;100128.34;5052758;28;20112;-74
2021/09/06 01:34:31;;;;;;;9.90;7.18;;;;;;;21.67;49.13;100072.34;5052760;28;20087;-74
2021/09/06 01:36:56;;;;;;;9.25;7.57;;;;;;;21.88;49.32;100112.03;5052757;28;20452;-75
2021/09/06 01:39:22;;;;;;;11.45;7.88;;;;;;;21.87;49.31;100116.56;5052759;28;20025;-74
2021/09/06 01:41:48;;;;;;;9.68;7.85;;;;;;;21.85;49.41;100128.63;5052454;28;20025;-74
2021/09/06 01:44:13;;;;;;;13.80;8.45;;;;;;;21.82;49.38;100131.78;5052467;28;20029;-74
2021/09/06 01:46:39;;;;;;;10.07;7.45;;;;;;;21.12;49.59;100027.88;5051048;28;20028;-75
2021/09/06 01:49:04;;;;;;;13.18;9.10;;;;;;;21.61;49.59;100102.84;5050912;28;20025;-74
2021/09/06 01:51:30;;;;;;;10.77;7.72;;;;;;;21.67;49.72;100129.59;5051155;28;20033;-75
2021/09/06 01:53:56;;;;;;;11.55;7.72;;;;;;;21.49;49.60;100097.47;5051652;28;20052;-74
2021/09/06 01:56:22;;;;;;;10.70;8.45;;;;;;;21.62;49.48;100099.94;5052442;28;20024;-74
2021/09/06 01:58:48;;;;;;;12.23;8.20;;;;;;;21.83;49.40;100122.66;5052281;28;20037;-74
2021/09/06 02:01:14;;;;;;;9.93;7.35;;;;;;;21.84;49.57;100121.63;5052141;28;20051;-75
2021/09/06 02:03:39;;;;;;;10.77;8.23;;;;;;;21.93;49.27;100119.38;5051973;28;20493;-75
2021/09/06 02:06:05;;;;;;;9.88;8.00;;;;;;;21.89;49.11;100121.72;5052128;28;20025;-75
2021/09/06 02:08:30;;;;;;;11.48;7.70;;;;;;;21.86;49.26;100120.31;5051901;28;20017;-74
2021/09/06 02:10:56;;;;;;;9.32;7.47;;;;;;;21.84;49.17;100121.63;5051924;28;20021;-74
2021/09/06 02:13:22;;;;;;;13.15;8.65;;;;;;;21.84;49.02;100124.31;5051878;28;20044;-75
2021/09/06 02:15:47;;;;;;;9.98;8.30;;;;;;;21.42;48.86;100062.66;5051880;28;20036;-75
2021/09/06 02:18:13;;;;;;;10.98;7.85;;;;;;;21.28;48.92;100047.84;5051703;28;20083;-74
2021/09/06 02:20:39;;;;;;;9.73;7.90;;;;;;;21.75;48.74;100121.16;5051928;28;20033;-75
2021/09/06 02:23:05;;;;;;;8.77;7.30;;;;;;;21.78;48.67;100122.56;5051912;28;20091;-75
2021/09/06 02:25:31;;;;;;;9.90;6.93;;;;;;;21.73;48.46;100117.09;5051757;28;20036;-74
2021/09/06 02:27:56;;;;;;;8.80;6.72;;;;;;;21.61;48.09;100094.78;5051662;28;20448;-75
2021/09/06 02:30:22;;;;;;;9.20;6.97;;;;;;;21.79;48.09;100129.56;5051696;28;20025;-74
2021/09/06 02:32:47;;;;;;;8.75;7.43;;;;;;;21.79;48.01;100118.81;5051643;28;20039;-74
2021/09/06 02:35:13;;;;;;;11.23;7.70;;;;;;;21.76;48.06;100121.97;5051425;28;20096;-75
2021/09/06 02:37:39;;;;;;;10.35;7.68;;;;;;;21.84;47.71;100119.75;5051383;28;20032;-75
2021/09/06 02:40:05;;;;;;;9.52;7.10;;;;;;;21.58;47.54;100098.78;5051429;28;20085;-74
2021/09/06 02:42:31;;;;;;;8.80;7.35;;;;;;;21.85;47.38;100128.63;5051169;28;20526;-75
2021/09/06 02:44:56;;;;;;;11.52;7.43;;;;;;;21.68;47.58;100109.72;5051269;28;20036;-74
2021/09/06 02:47:22;;;;;;;9.02;7.13;;;;;;;21.67;47.55;100115.34;5051307;28;20486;-74
2021/09/06 02:49:47;;;;;;;10.07;7.38;;;;;;;21.80;47.13;100131.22;5051180;28;20017;-74
2021/09/06 02:52:13;;;;;;;12.07;7.30;;;;;;;21.74;47.23;100126.78;5051254;28;20020;-74
2021/09/06 02:54:38;;;;;;;8.50;7.13;;;;;;;21.52;47.40;100108.56;5051446;28;20387;-74
2021/09/06 02:57:04;;;;;;;8.43;6.40;;;;;;;21.48;47.22;100093.16;5049946;28;20039;-74
2021/09/06 02:59:29;;;;;;;9.55;7.38;;;;;;;21.53;47.23;100102.13;5051207;28;20040;-74
2021/09/06 03:01:54;;;;;;;9.93;7.30;;;;;;;21.77;47.32;100137.06;5051245;28;20036;-74
2021/09/06 03:04:21;;;;;;;10.38;7.32;;;;;;;21.53;46.91;100104.81;5051345;28;20086;-75
2021/09/06 03:06:46;;;;;;;12.45;7.28;;;;;;;21.30;47.22;100067.25;5051205;28;20025;-75
2021/09/06 03:09:12;;;;;;;11.73;7.93;;;;;;;21.32;46.58;100064.31;5051117;28;20500;-74
2021/09/06 03:11:38;;;;;;;8.23;6.55;;;;;;;21.68;46.48;100135.78;5051146;28;20021;-75
2021/09/06 03:14:03;;;;;;;11.48;6.72;;;;;;;21.42;46.30;100100.28;5051063;28;20458;-74
2021/09/06 03:16:29;;;;;;;10.18;6.93;;;;;;;21.38;45.89;100104.50;5051154;28;20055;-75
2021/09/06 03:18:54;;;;;;;9.23;7.00;;;;;;;21.53;45.97;100137.06;5050889;28;20029;-75
2021/09/06 03:21:20;;;;;;;9.77;7.28;;;;;;;21.21;45.63;100106.22;5050925;28;20543;-74
2021/09/06 03:23:45;;;;;;;8.30;6.88;;;;;;;21.34;45.93;100130.19;5051236;28;20039;-80
2021/09/06 03:26:11;;;;;;;7.70;5.82;;;;;;;21.42;45.51;100139.75;5050878;28;20029;-80
2021/09/06 03:28:36;;;;;;;9.52;6.40;;;;;;;21.47;45.46;100143.38;5051041;28;20074;-80
2021/09/06 03:31:03;;;;;;;9.18;6.65;;;;;;;21.04;45.07;100078.44;5049728;28;20036;-79
2021/09/06 03:33:28;;;;;;;7.82;6.60;;;;;;;21.57;44.97;100164.31;5050919;28;20025;-79
2021/09/06 03:35:53;;;;;;;10.55;6.30;;;;;;;21.31;44.94;100137.91;5051004;28;20460;-80
2021/09/06 03:38:19;;;;;;;7.85;5.75;;;;;;;21.08;44.87;100090.34;5050898;28;20021;-80
2021/09/06 03:40:44;;;;;;;6.35;5.60;;;;;;;21.41;44.74;100148.88;5051098;28;20108;-80
2021/09/06 03:43:10;;;;;;;7.70;5.82;;;;;;;20.96;44.83;100081.47;5050950;28;20043;-80
2021/09/06 03:45:35;;;;;;;9.15;5.55;;;;;;;21.05;44.66;100090.81;5050904;28;20025;-80
2021/09/06 03:48:01;;;;;;;7.13;5.57;;;;;;;21.49;44.48;100176.19;5050770;28;20017;-79
2021/09/06 03:50:27;;;;;;;9.77;6.80;;;;;;;21.54;44.39;100175.50;5050646;28;20029;-79
2021/09/06 03:52:52;;;;;;;7.00;5.57;;;;;;;21.15;44.17;100110.66;5050693;28;20029;-80
2021/09/06 03:55:18;;;;;;;9.38;6.32;;;;;;;21.51;44.16;100167.91;5049381;28;20082;-79
2021/09/06 03:57:44;;;;;;;8.27;5.70;;;;;;;21.48;44.25;100179.13;5050815;28;20029;-79
2021/09/06 04:00:10;;;;;;;7.15;5.55;;;;;;;21.40;44.14;100172.22;5050829;28;20615;-79
2021/09/06 04:02:35;;;;;;;8.70;5.93;;;;;;;20.74;44.30;100079.31;5050589;28;20632;-79
2021/09/06 04:05:01;;;;;;;6.63;5.90;;;;;;;20.82;44.33;100110.41;5050808;28;20108;-79
2021/09/06 04:07:27;;;;;;;9.43;5.95;;;;;;;20.68;44.29;100082.09;5050560;28;20033;-80
2021/09/06 04:09:53;;;;;;;8.55;6.30;;;;;;;21.00;44.24;100139.00;5050776;28;20017;-79
2021/09/06 04:12:19;;;;;;;9.07;6.53;;;;;;;21.29;44.26;100191.84;5050527;28;20497;-79
2021/09/06 04:14:44;;;;;;;9.60;6.50;;;;;;;21.31;44.38;100191.63;5050281;28;20044;-79
2021/09/06 04:17:10;;;;;;;9.95;6.80;;;;;;;20.90;44.09;100128.84;5053347;28;20535;-79
2021/09/06 04:19:35;;;;;;;9.50;6.72;;;;;;;21.30;44.18;100203.41;5054236;28;20155;-80
2021/09/06 04:22:02;;;;;;;9.07;6.20;;;;;;;21.29;44.25;100207.97;5054064;28;20021;-80
2021/09/06 04:24:27;;;;;;;9.65;6.75;;;;;;;21.29;44.38;100201.78;5052835;28;20025;-74
2021/09/06 04:26:53;;;;;;;8.85;6.47;;;;;;;21.35;44.28;100204.34;5054201;28;20021;-74
2021/09/06 04:29:19;;;;;;;8.60;7.22;;;;;;;21.07;44.26;100166.56;5052736;28;20031;-75
2021/09/06 04:31:45;;;;;;;10.45;6.25;;;;;;;21.27;44.22;100193.94;5053993;28;20108;-75
2021/09/06 04:34:11;;;;;;;8.20;6.63;;;;;;;21.33;44.25;100213.69;5054002;28;20083;-75
2021/09/06 04:36:36;;;;;;;9.40;6.35;;;;;;;21.36;44.18;100211.34;5053694;28;20020;-75
2021/09/06 04:39:02;;;;;;;7.68;5.70;;;;;;;21.37;44.25;100213.00;5052206;28;20025;-75
2021/09/06 04:41:28;;;;;;;8.40;6.03;;;;;;;21.41;44.22;100207.97;5053697;28;20576;-75
2021/09/06 04:43:53;;;;;;;9.23;6.90;;;;;;;21.48;44.09;100219.44;5053556;28;20112;-75
2021/09/06 04:46:19;;;;;;;9.25;6.28;;;;;;;21.53;44.21;100217.69;5053599;28;20060;-75
2021/09/06 04:48:45;;;;;;;9.93;6.22;;;;;;;21.58;44.10;100218.88;5053607;28;20040;-75
2021/09/06 04:51:11;;;;;;;11.15;6.30;;;;;;;21.60;44.13;100206.84;5053564;28;20048;-75
2021/09/06 04:53:40;;;;;;;8.63;5.97;;;;;;;21.48;43.95;100196.06;5053624;28;20094;-75
2021/09/06 04:56:07;;;;;;;6.55;5.70;;;;;;;21.34;43.83;100161.59;5053761;28;20028;-74
2021/09/06 04:58:32;;;;;;;7.05;5.45;;;;;;;21.27;43.33;100150.97;5053182;28;20064;-74
2021/09/06 05:00:57;;;;;;;14.00;6.50;;;;;;;21.49;43.36;100184.25;5053194;28;20044;-74
2021/09/06 05:03:23;;;;;;;9.98;6.47;;;;;;;21.70;43.10;100217.00;5051777;28;20083;-74
2021/09/06 05:05:48;;;;;;;7.68;5.95;;;;;;;21.65;43.53;100228.47;5053340;28;20107;-74
2021/09/06 05:08:14;;;;;;;7.35;5.40;;;;;;;21.21;43.05;100155.38;5053292;28;20416;-74
2021/09/06 05:10:40;;;;;;;10.43;5.97;;;;;;;21.61;43.13;100234.53;5053371;28;20025;-74
2021/09/06 05:13:05;;;;;;;6.93;5.93;;;;;;;21.33;42.96;100179.59;5053290;28;20107;-74
2021/09/06 05:15:31;;;;;;;9.35;5.82;;;;;;;21.58;42.76;100214.31;5053590;28;20128;-74
2021/09/06 05:17:56;;;;;;;7.53;5.88;;;;;;;21.67;42.89;100231.72;5053086;28;20096;-74
2021/09/06 05:20:22;;;;;;;8.10;6.13;;;;;;;21.52;42.87;100202.59;5053062;28;20104;-75
2021/09/06 05:22:48;;;;;;;11.88;6.65;;;;;;;21.71;42.56;100226.69;5053020;28;20028;-74
2021/09/06 05:25:13;;;;;;;7.90;5.43;;;;;;;21.73;42.34;100225.41;5052980;28;20029;-80
2021/09/06 05:27:38;;;;;;;6.95;4.85;;;;;;;21.54;42.23;100186.25;5051703;28;20023;-80
2021/09/06 05:30:05;;;;;;;9.18;5.90;;;;;;;21.82;42.50;100234.75;5052666;28;20481;-79
2021/09/06 05:32:30;;;;;;;6.68;5.25;;;;;;;21.51;42.33;100184.84;5052690;28;20047;-81
2021/09/06 05:34:55;;;;;;;9.10;5.68;;;;;;;21.62;42.38;100201.22;5052625;28;20501;-80
2021/09/06 05:37:21;;;;;;;10.13;6.18;;;;;;;21.91;42.05;100243.28;5051372;28;20020;-79
2021/09/06 05:39:47;;;;;;;7.45;5.35;;;;;;;21.63;42.13;100202.88;5052620;28;20104;-81
2021/09/06 05:42:12;;;;;;;10.45;6.22;;;;;;;21.65;42.14;100215.03;5052680;28;20039;-80
2021/09/06 05:44:37;;;;;;;8.00;5.88;;;;;;;21.78;42.32;100244.34;5052652;28;20032;-81
2021/09/06 05:47:03;;;;;;;9.65;6.53;;;;;;;21.45;42.18;100201.91;5052710;28;20053;-80
2021/09/06 05:49:28;;;;;;;8.73;5.15;;;;;;;21.66;42.16;100240.03;5052480;28;20428;-81
2021/09/06 05:51:54;;;;;;;8.68;5.78;;;;;;;21.68;42.35;100243.28;5052397;28;20507;-81
2021/09/06 05:54:20;;;;;;;10.60;5.80;;;;;;;21.61;42.32;100219.22;5051006;28;20480;-79
2021/09/06 05:56:45;;;;;;;11.02;5.80;;;;;;;21.82;42.22;100250.88;5052202;28;20101;-78
2021/09/06 05:59:11;;;;;;;10.05;6.07;;;;;;;21.65;42.11;100222.25;5052048;28;20025;-81
2021/09/06 06:01:36;;;;;;;15.35;6.70;;;;;;;21.91;42.21;100253.22;5052254;28;20029;-80
2021/09/06 06:04:02;;;;;;;7.70;5.57;;;;;;;21.60;42.10;100200.66;5052088;28;20021;-81
2021/09/06 06:06:28;;;;;;;11.88;5.72;;;;;;;21.79;41.88;100223.66;5052121;28;20501;-80
2021/09/06 06:08:53;;;;;;;8.00;6.10;;;;;;;21.57;41.68;100180.44;5052310;28;20021;-79
2021/09/06 06:11:19;;;;;;;8.90;5.40;;;;;;;22.02;41.61;100260.47;5052180;28;20025;-80
2021/09/06 06:13:44;;;;;;;9.20;5.65;;;;;;;21.95;41.56;100240.94;5050546;28;20041;-81
2021/09/06 06:16:10;;;;;;;8.35;5.63;;;;;;;21.85;41.64;100228.09;5051903;28;20017;-81
2021/09/06 06:18:35;;;;;;;6.57;4.78;;;;;;;22.06;41.55;100265.16;5051977;28;20390;-80
2021/09/06 06:21:00;;;;;;;6.72;5.22;;;;;;;22.10;41.60;100262.81;5051976;28;20459;-80
2021/09/06 06:23:26;;;;;;;7.03;5.43;;;;;;;21.83;41.63;100231.03;5050690;28;20021;-74
2021/09/06 06:25:51;;;;;;;12.57;5.78;;;;;;;21.94;41.63;100250.88;5051752;28;20102;-74
2021/09/06 06:28:17;;;;;;;8.15;5.97;;;;;;;21.88;41.88;100238.38;5051733;28;20456;-75
2021/09/06 06:30:42;;;;;;;10.10;5.90;;;;;;;22.00;41.98;100267.94;5051695;28;20116;-75
2021/09/06 06:33:08;;;;;;;7.55;5.35;;;;;;;21.67;41.98;100220.16;5051579;28;20044;-75
2021/09/06 06:35:33;;;;;;;7.22;5.18;;;;;;;21.70;42.11;100233.13;5050390;28;20482;-75
2021/09/06 06:37:59;;;;;;;9.40;5.60;;;;;;;21.55;42.06;100210.22;5051698;28;20066;-74
2021/09/06 06:40:24;;;;;;;8.00;5.22;;;;;;;21.71;42.11;100234.75;5051263;28;20027;-75
2021/09/06 06:42:50;;;;;;;6.32;5.20;;;;;;;21.93;42.08;100269.94;5050253;28;20039;-76
2021/09/06 06:45:15;;;;;;;8.57;5.82;;;;;;;21.83;42.01;100249.03;5050246;28;20032;-75
2021/09/06 06:47:40;;;;;;;18.25;5.63;;;;;;;21.87;42.11;100248.31;5051371;28;20052;-72
2021/09/06 06:50:06;;;;;;;15.50;6.18;;;;;;;22.19;41.94;100269.47;5051411;28;20100;-75
2021/09/06 06:52:31;;;;;;;8.13;5.40;;;;;;;22.24;41.86;100276.84;5051384;28;20032;-76
2021/09/06 06:54:57;;;;;;;13.05;6.40;;;;;;;22.32;41.91;100284.56;5049873;28;20021;-74
2021/09/06 06:57:22;;;;;;;18.38;6.85;;;;;;;21.91;41.69;100208.34;5051305;28;20052;-74
2021/09/06 06:59:48;;;;;;;11.85;5.95;;;;;;;22.49;41.88;100290.84;5051297;28;20108;-74
2021/09/06 07:02:13;;;;;;;8.35;6.13;;;;;;;22.23;41.74;100232.16;5051009;28;20409;-74
2021/09/06 07:04:39;;;;;;;10.00;5.53;;;;;;;22.59;41.61;100292.94;5051321;28;20517;-75
2021/09/06 07:07:04;;;;;;;8.50;4.97;;;;;;;22.74;41.54;100299.44;5051245;28;20108;-74
2021/09/06 07:09:29;;;;;;;11.25;5.65;;;;;;;22.86;41.29;100304.81;5051057;28;20017;-75
2021/09/06 07:11:55;;;;;;;7.47;5.47;;;;;;;22.97;41.25;100300.44;5051036;28;20163;-75
2021/09/06 07:14:20;;;;;;;10.15;5.13;;;;;;;22.98;41.16;100310.16;5050815;28;20529;-74
2021/09/06 07:16:45;;;;;;;7.82;5.10;;;;;;;22.92;40.99;100289.56;5051020;28;20463;-74
2021/09/06 07:19:11;;;;;;;7.35;5.22;;;;;;;23.04;40.95;100303.81;5050969;28;20024;-75
2021/09/06 07:21:36;;;;;;;15.43;6.43;;;;;;;22.72;40.90;100238.81;5050929;28;20593;-75
2021/09/06 07:24:02;;;;;;;16.42;6.38;;;;;;;23.02;40.52;100278.97;5050772;28;20032;-75
2021/09/06 07:26:28;;;;;;;8.57;5.97;;;;;;;23.23;40.77;100296.34;5049500;28;20112;-76
2021/09/06 07:28:53;;;;;;;15.93;6.97;;;;;;;23.24;40.41;100281.81;5051003;28;20096;-75
2021/09/06 07:31:19;;;;;;;20.65;7.68;;;;;;;23.11;40.43;100254.13;5050966;28;20109;-74
2021/09/06 07:33:44;;;;;;;32.47;6.85;;;;;;;23.40;39.94;100289.09;5051072;28;20029;-74
2021/09/06 07:36:10;;;;;;;25.38;6.00;;;;;;;23.55;39.23;100304.75;5050859;28;20029;-74
2021/09/06 07:38:35;;;;;;;17.38;6.45;;;;;;;23.51;39.07;100282.00;5050597;28;20100;-75
2021/09/06 07:41:01;;;;;;;11.82;5.10;;;;;;;23.56;38.95;100298.28;5050681;28;20036;-75
2021/09/06 07:43:26;;;;;;;9.48;5.25;;;;;;;23.42;38.59;100278.91;5051034;28;20020;-75
2021/09/06 07:45:52;;;;;;;30.33;6.68;;;;;;;23.37;38.43;100251.88;5050733;28;20021;-74
2021/09/06 07:48:17;;;;;;;22.48;5.55;;;;;;;23.53;38.33;100259.13;5050752;28;20490;-75
2021/09/06 07:50:44;;;;;;;12.27;5.05;;;;;;;23.77;38.24;100297.53;5051020;28;20108;-75
2021/09/06 07:53:09;;;;;;;11.40;5.30;;;;;;;23.23;38.54;100216.34;5054765;28;20531;-75
2021/09/06 07:55:35;;;;;;;11.52;5.20;;;;;;;23.76;38.56;100299.44;5054619;28;20048;-75
2021/09/06 07:58:00;;;;;;;18.83;5.40;;;;;;;23.80;38.47;100307.06;5054261;28;20052;-73
2021/09/06 08:00:26;;;;;;;6.85;4.70;;;;;;;23.60;37.88;100264.38;5054324;28;20060;-73
2021/09/06 08:02:51;;;;;;;11.95;5.63;;;;;;;23.83;37.92;100291.19;5054076;28;20033;-73
2021/09/06 08:05:21;;;;;;;6.80;4.85;;;;;;;23.90;37.64;100299.94;5054292;28;20020;-75
2021/09/06 08:07:48;;;;;;;11.10;6.00;;;;;;;23.61;37.17;100256.06;5053111;28;20021;-75
2021/09/06 08:10:13;;;;;;;14.77;4.95;;;;;;;23.76;36.25;100283.25;5054181;28;20081;-75
2021/09/06 08:12:39;;;;;;;17.13;5.88;;;;;;;23.65;35.61;100261.78;5054197;28;20029;-75
2021/09/06 08:15:06;;;;;;;6.68;4.90;;;;;;;24.00;35.51;100308.19;5052592;28;20053;-75
2021/09/06 08:17:34;;;;;;;7.32;5.00;;;;;;;24.08;35.50;100315.84;5053814;28;20032;-73
2021/09/06 08:19:59;;;;;;;14.27;5.07;;;;;;;24.01;35.39;100317.91;5053580;28;20489;-75
2021/09/06 08:22:25;;;;;;;10.52;5.10;;;;;;;23.77;35.37;100263.31;5053796;28;20021;-75
2021/09/06 08:24:50;;;;;;;17.75;5.35;;;;;;;23.93;35.45;100288.66;5053962;28;20385;-74
2021/09/06 08:27:15;;;;;;;7.82;4.63;;;;;;;24.19;35.46;100305.19;5053816;28;20029;-74
2021/09/06 08:29:41;;;;;;;9.90;5.00;;;;;;;24.23;35.31;100276.66;5053835;28;20103;-75
2021/09/06 08:32:06;;;;;;;7.97;4.65;;;;;;;24.46;35.16;100298.03;5053665;28;20112;-75
2021/09/06 08:34:32;;;;;;;14.90;5.50;;;;;;;24.43;34.50;100266.13;5053557;28;20025;-74
2021/09/06 08:36:57;;;;;;;9.75;4.57;;;;;;;24.37;33.81;100245.56;5053734;28;20095;-75
2021/09/06 08:39:23;;;;;;;9.25;4.78;;;;;;;24.50;33.40;100253.28;5053672;28;20059;-74
2021/09/06 08:41:49;;;;;;;6.30;4.30;;;;;;;24.76;33.56;100265.19;5053901;28;20031;-75
2021/09/06 08:44:15;;;;;;;15.02;5.18;;;;;;;24.96;33.01;100295.13;5053780;28;20486;-75
2021/09/06 08:46:41;;;;;;;9.30;5.20;;;;;;;24.66;32.72;100241.59;5053614;28;20087;-75
2021/09/06 08:49:07;;;;;;;7.72;5.10;;;;;;;24.68;32.71;100244.06;5053334;28;20023;-75
2021/09/06 08:51:33;;;;;;;10.90;5.05;;;;;;;24.70;32.29;100252.72;5052023;28;20036;-75
2021/09/06 08:53:59;;;;;;;5.63;4.88;;;;;;;24.91;32.59;100286.97;5053427;28;20104;-75
2021/09/06 08:56:29;;;;;;;29.95;6.25;;;;;;;24.95;32.54;100289.97;5053426;28;20040;-75
2021/09/06 08:58:54;;;;;;;9.13;4.85;;;;;;;25.17;32.23;100284.56;5053155;28;20496;-75
2021/09/06 09:01:20;;;;;;;15.85;5.65;;;;;;;25.17;32.10;100255.63;5053205;28;20037;-75
2021/09/06 09:03:45;;;;;;;5.85;4.95;;;;;;;25.50;31.55;100264.59;5052888;28;20508;-75
2021/09/06 09:06:11;;;;;;;14.20;4.93;;;;;;;25.91;30.97;100290.88;5053288;28;20553;-75
2021/09/06 09:08:38;;;;;;;24.83;5.82;;;;;;;26.16;29.76;100286.72;5053057;28;20025;-75
2021/09/06 09:11:06;;;;;;;24.05;6.07;;;;;;;25.91;29.52;100227.84;5053004;28;20474;-75
2021/09/06 09:13:40;;;;;;;12.82;5.60;;;;;;;26.54;28.19;100293.69;5052887;28;20056;-75
2021/09/06 09:16:07;;;;;;;6.60;4.15;;;;;;;26.52;28.54;100268.78;5052929;28;20032;-75
2021/09/06 09:18:35;;;;;;;12.93;5.15;;;;;;;26.39;27.87;100245.72;5052865;28;20100;-75
2021/09/06 09:21:03;;;;;;;8.73;5.40;;;;;;;26.79;27.51;100284.88;5051690;28;20029;-74
2021/09/06 09:23:39;;;;;;;9.15;4.93;;;;;;;26.93;26.40;100272.44;5052912;28;20035;-75
2021/09/06 09:26:05;;;;;;;33.78;6.25;;;;;;;26.83;26.84;100267.00;5052692;28;20032;-74
2021/09/06 09:28:30;;;;;;;30.10;6.28;;;;;;;27.06;26.43;100280.06;5052877;28;20021;-75
2021/09/06 09:31:11;;;;;;;12.00;4.55;;;;;;;26.99;26.11;100251.59;5052841;28;20410;-75
2021/09/06 09:33:42;;;;;;;10.73;4.28;;;;;;;27.34;26.17;100281.47;5052726;28;20078;-73
2021/09/06 09:36:07;;;;;;;11.98;4.72;;;;;;;27.35;25.80;100234.28;5052835;28;20058;-75
2021/09/06 09:38:37;;;;;;;5.82;4.68;;;;;;;27.79;25.38;100269.00;5052333;28;20029;-74
2021/09/06 09:41:11;;;;;;;34.70;6.57;;;;;;;27.91;25.09;100272.25;5051887;28;20037;-74
2021/09/06 09:43:37;;;;;;;14.32;4.68;;;;;;;27.78;24.53;100235.63;5052389;28;20108;-75
2021/09/06 09:46:04;;;;;;;20.42;4.68;;;;;;;28.08;24.34;100261.06;5051184;28;20103;-75
2021/09/06 09:48:29;;;;;;;16.13;4.70;;;;;;;28.23;23.92;100271.06;5052553;28;20028;-75
2021/09/06 09:50:55;;;;;;;6.65;4.78;;;;;;;28.39;23.53;100268.06;5052382;28;20425;-75
2021/09/06 09:53:22;;;;;;;12.65;4.55;;;;;;;28.53;23.44;100267.47;5051001;28;20493;-76
2021/09/06 09:55:47;;;;;;;5.43;4.15;;;;;;;28.61;23.35;100266.88;5052319;28;20017;-75
2021/09/06 09:58:14;;;;;;;5.32;4.82;;;;;;;28.55;23.40;100260.66;5052210;28;20036;-75
2021/09/06 10:00:41;;;;;;;5.03;4.57;;;;;;;28.42;23.32;100264.81;5052291;28;20401;-76
2021/09/06 10:03:07;;;;;;;6.80;5.63;;;;;;;28.48;22.78;100255.53;5051930;28;20033;-74
2021/09/06 10:05:36;;;;;;;12.23;4.63;;;;;;;28.12;22.85;100183.41;5050700;28;20104;-75
2021/09/06 10:08:05;;;;;;;8.07;4.20;;;;;;;28.44;22.47;100257.19;5052211;28;20029;-74
2021/09/06 10:10:36;;;;;;;6.93;4.72;;;;;;;28.46;22.17;100255.00;5051995;28;20032;-75
2021/09/06 10:13:05;;;;;;;5.60;3.70;;;;;;;28.79;22.18;100242.59;5051599;28;20508;-76
2021/09/06 10:15:32;;;;;;;6.80;4.75;;;;;;;29.15;22.57;100247.84;5051359;28;20060;-75
2021/09/06 10:18:00;;;;;;;6.88;4.53;;;;;;;28.94;22.48;100209.09;5051693;28;20029;-75
2021/09/06 10:20:27;;;;;;;9.65;4.85;;;;;;;29.41;22.13;100243.00;5051850;28;20569;-75
2021/09/06 10:23:07;;;;;;;6.63;4.75;;;;;;;29.56;21.57;100223.84;5051845;28;20028;-75
2021/09/06 10:25:34;;;;;;;7.28;4.28;;;;;;;29.78;21.25;100228.81;5051703;28;20032;-75
2021/09/06 10:28:04;;;;;;;6.43;4.03;;;;;;;29.79;21.70;100208.66;5051795;28;20025;-74
2021/09/06 10:30:38;;;;;;;4.97;4.13;;;;;;;30.20;20.82;100228.09;5051773;28;20463;-75
2021/09/06 10:33:05;;;;;;;6.40;4.53;;;;;;;30.28;21.30;100216.53;5051714;28;20452;-74
2021/09/06 10:35:31;;;;;;;5.80;4.00;;;;;;;30.06;20.52;100180.06;5051744;28;20500;-76
2021/09/06 10:38:15;;;;;;;9.45;5.22;;;;;;;30.30;20.80;100248.94;5051533;28;20104;-73
2021/09/06 10:40:43;;;;;;;7.03;4.65;;;;;;;29.89;20.73;100199.56;5051392;28;20060;-75
2021/09/06 10:43:24;;;;;;;6.88;4.60;;;;;;;30.18;20.55;100230.28;5050014;28;20544;-74
2021/09/06 10:45:52;;;;;;;8.93;5.05;;;;;;;30.13;21.06;100205.84;5049990;28;20094;-73
2021/09/06 10:48:24;;;;;;;7.75;4.80;;;;;;;30.24;20.57;100185.53;5051445;28;20039;-75
2021/09/06 10:50:51;;;;;;;8.90;4.72;;;;;;;30.67;20.68;100229.16;5051356;28;20033;-76
2021/09/06 10:53:22;;;;;;;7.30;4.65;;;;;;;30.73;20.47;100219.78;5051324;28;20486;-74
2021/09/06 10:55:55;;;;;;;;;;;;;;;30.82;20.40;100239.03;5051806;28;20032;-74
2021/09/06 10:58:23;;;;;;;28.67;6.82;;;;;;;30.67;20.74;100231.88;5051257;28;19923;-75
2021/09/06 11:00:54;;;;;;;33.85;6.88;;;;;;;30.80;20.59;100228.41;5051311;28;20032;-74
2021/09/06 11:03:21;;;;;;;9.20;6.35;;;;;;;30.85;20.54;100217.44;5051195;28;20029;-74
2021/09/06 11:05:51;;;;;;;8.27;4.97;;;;;;;30.94;20.09;100220.28;5051218;28;20033;-74
2021/09/06 11:08:23;;;;;;;10.15;5.07;;;;;;;30.75;18.90;100222.22;5051216;28;20429;-73
2021/09/06 11:10:49;;;;;;;9.40;5.80;;;;;;;30.64;19.78;100221.56;5051268;28;20036;-75
2021/09/06 11:13:14;;;;;;;9.57;6.03;;;;;;;30.57;19.69;100218.34;5050987;28;20057;-75
2021/09/06 11:15:40;;;;;;;9.30;6.03;;;;;;;30.27;20.39;100149.53;5051003;28;20504;-72
2021/09/06 11:18:07;;;;;;;8.27;4.75;;;;;;;30.87;19.39;100215.22;5050879;28;20025;-75